Time;durP1;ratioP1;P1;durP2;ratioP2;P2;SDS_P1;SDS_P2;PMS_P1;PMS_P2;Temp;Humidity;BMP_temperature;BMP_pressure;BME280_temperature;BME280_humidity;BME280_pressure;Samples;Min_cycle;Max_cycle;Signal;HPM_P1;HPM_P2
2023/10/16 00:00:32;;;;;;;1.00;0.67;;;;;;;;;;6172187;28;20081;-82
2023/10/16 00:03:32;;;;;;;0.55;0.40;;;;;;;;;;6174372;28;20026;-84
2023/10/16 00:06:33;;;;;;;0.63;0.57;;;;;;;;;;6175862;28;20039;-82
2023/10/16 00:09:34;;;;;;;1.23;0.67;;;;;;;;;;6178585;28;20035;-83
2023/10/16 00:12:36;;;;;;;0.95;0.50;;;;;;;;;;6180448;28;20080;-83
2023/10/16 00:15:40;;;;;;;0.70;0.70;;;;;;;;;;6177372;28;20109;-83
2023/10/16 00:18:40;;;;;;;0.80;0.65;;;;;;;;;;6171095;28;20513;-83
2023/10/16 00:21:43;;;;;;;0.80;0.67;;;;;;;;;;6178242;28;20035;-83
2023/10/16 00:24:47;;;;;;;0.68;0.40;;;;;;;;;;6173905;28;20019;-83
2023/10/16 00:27:47;;;;;;;1.05;0.73;;;;;;;;;;6177954;28;20031;-82
2023/10/16 00:30:47;;;;;;;1.17;0.70;;;;;;;;;;6175754;28;20077;-82
2023/10/16 00:33:51;;;;;;;0.50;0.50;;;;;;;;;;6157838;28;20030;-85
2023/10/16 00:36:54;;;;;;;1.00;0.70;;;;;;;;;;6170171;28;20383;-83
2023/10/16 00:39:56;;;;;;;0.50;0.50;;;;;;;;;;6159535;28;20074;-83
2023/10/16 00:42:56;;;;;;;0.90;0.70;;;;;;;;;;6175283;28;20022;-82
2023/10/16 00:46:00;;;;;;;0.80;0.70;;;;;;;;;;6176377;28;20027;-83
2023/10/16 00:49:00;;;;;;;0.80;0.63;;;;;;;;;;6172426;28;20054;-82
2023/10/16 00:52:03;;;;;;;0.70;0.47;;;;;;;;;;6157189;28;20056;-83
2023/10/16 00:55:04;;;;;;;0.60;0.52;;;;;;;;;;6174876;28;20266;-83
2023/10/16 00:58:07;;;;;;;0.97;0.57;;;;;;;;;;6176067;28;20023;-82
2023/10/16 01:01:12;;;;;;;0.52;0.52;;;;;;;;;;6171817;28;20099;-83
2023/10/16 01:04:19;;;;;;;1.45;0.55;;;;;;;;;;6174664;28;20584;-85
2023/10/16 01:07:19;;;;;;;0.50;0.50;;;;;;;;;;6177082;28;20470;-85
2023/10/16 01:10:22;;;;;;;0.70;0.60;;;;;;;;;;6179290;28;20031;-82
2023/10/16 01:13:22;;;;;;;0.85;0.73;;;;;;;;;;6173077;28;20077;-82
2023/10/16 01:16:23;;;;;;;0.70;0.63;;;;;;;;;;6175585;28;20031;-85
2023/10/16 01:19:24;;;;;;;0.90;0.65;;;;;;;;;;6157667;28;20394;-83
2023/10/16 01:22:29;;;;;;;0.70;0.60;;;;;;;;;;6157726;28;20453;-82
2023/10/16 01:25:30;;;;;;;0.60;0.52;;;;;;;;;;6175803;28;20123;-83
2023/10/16 01:28:30;;;;;;;1.00;0.57;;;;;;;;;;6175404;28;20034;-86
2023/10/16 01:31:30;;;;;;;0.90;0.57;;;;;;;;;;6174796;28;20070;-82
2023/10/16 01:34:32;;;;;;;1.10;0.70;;;;;;;;;;6168854;28;20458;-85
2023/10/16 01:37:32;;;;;;;0.57;0.57;;;;;;;;;;6158103;28;20076;-84
2023/10/16 01:40:37;;;;;;;0.87;0.40;;;;;;;;;;6178063;28;20035;-84
2023/10/16 01:43:38;;;;;;;1.17;0.50;;;;;;;;;;6186086;28;20053;-86
2023/10/16 01:46:38;;;;;;;1.27;0.60;;;;;;;;;;6184502;28;20113;-85
2023/10/16 01:49:38;;;;;;;0.63;0.50;;;;;;;;;;6181735;28;20114;-87
2023/10/16 01:52:40;;;;;;;0.60;0.50;;;;;;;;;;6180781;28;20096;-86
2023/10/16 01:55:42;;;;;;;0.82;0.50;;;;;;;;;;6176987;28;20048;-85
2023/10/16 01:58:44;;;;;;;0.60;0.60;;;;;;;;;;6176026;28;20434;-85
2023/10/16 02:01:44;;;;;;;0.63;0.57;;;;;;;;;;6183309;28;20025;-85
2023/10/16 02:04:45;;;;;;;1.07;0.63;;;;;;;;;;6176508;28;20034;-85
2023/10/16 02:07:45;;;;;;;2.00;0.60;;;;;;;;;;6164637;28;20039;-85
2023/10/16 02:10:45;;;;;;;0.63;0.50;;;;;;;;;;6184251;28;20026;-85
2023/10/16 02:13:46;;;;;;;0.70;0.60;;;;;;;;;;6177385;28;20113;-85
2023/10/16 02:16:47;;;;;;;0.77;0.70;;;;;;;;;;6179490;28;20046;-85
2023/10/16 02:19:48;;;;;;;1.40;0.53;;;;;;;;;;6179429;28;20277;-85
2023/10/16 02:22:48;;;;;;;1.00;0.80;;;;;;;;;;6176400;28;20278;-84
2023/10/16 02:25:48;;;;;;;1.13;0.60;;;;;;;;;;6160455;28;20053;-84
2023/10/16 02:28:54;;;;;;;0.80;0.53;;;;;;;;;;6178240;28;20374;-85
2023/10/16 02:31:54;;;;;;;1.10;0.77;;;;;;;;;;6160126;28;20022;-84
2023/10/16 02:34:54;;;;;;;1.00;0.70;;;;;;;;;;6177847;28;20034;-85
2023/10/16 02:37:57;;;;;;;1.43;0.70;;;;;;;;;;6175682;28;20078;-84
2023/10/16 02:41:03;;;;;;;0.70;0.60;;;;;;;;;;6164560;28;20027;-85
2023/10/16 02:44:03;;;;;;;0.70;0.52;;;;;;;;;;6178299;28;20026;-85
2023/10/16 02:47:05;;;;;;;0.70;0.50;;;;;;;;;;6176178;28;20034;-82
2023/10/16 02:50:08;;;;;;;0.93;0.70;;;;;;;;;;6178273;28;20038;-82
2023/10/16 02:53:08;;;;;;;1.00;0.70;;;;;;;;;;6176513;28;20073;-82
2023/10/16 02:56:14;;;;;;;2.07;0.70;;;;;;;;;;6173242;28;20033;-82
2023/10/16 02:59:14;;;;;;;0.85;0.60;;;;;;;;;;6177237;28;20479;-82
2023/10/16 03:02:17;;;;;;;1.03;0.60;;;;;;;;;;6178151;28;20037;-82
2023/10/16 03:05:24;;;;;;;0.60;0.60;;;;;;;;;;6177460;28;20019;-82
2023/10/16 03:08:30;;;;;;;0.75;0.55;;;;;;;;;;6174979;28;20030;-84
2023/10/16 03:11:31;;;;;;;0.45;0.40;;;;;;;;;;6177317;28;20043;-85
2023/10/16 03:14:37;;;;;;;0.57;0.57;;;;;;;;;;6184314;28;20034;-82
2023/10/16 03:17:43;;;;;;;0.45;0.40;;;;;;;;;;6186397;28;20031;-83
2023/10/16 03:20:44;;;;;;;1.03;0.60;;;;;;;;;;6176101;28;20586;-84
2023/10/16 03:23:47;;;;;;;0.85;0.57;;;;;;;;;;6196919;28;20047;-83
2023/10/16 03:26:50;;;;;;;0.73;0.50;;;;;;;;;;6190650;28;20023;-82
2023/10/16 03:29:51;;;;;;;1.15;0.50;;;;;;;;;;6175341;28;20045;-83
2023/10/16 03:32:53;;;;;;;1.15;0.45;;;;;;;;;;6177743;28;20455;-83
2023/10/16 03:35:53;;;;;;;0.93;0.47;;;;;;;;;;6177668;28;20061;-83
2023/10/16 03:38:53;;;;;;;0.47;0.47;;;;;;;;;;6166672;28;20506;-87
2023/10/16 03:41:53;;;;;;;0.60;0.40;;;;;;;;;;6176086;28;20015;-82
2023/10/16 03:44:55;;;;;;;0.73;0.53;;;;;;;;;;6176148;28;20027;-82
2023/10/16 03:48:02;;;;;;;0.40;0.40;;;;;;;;;;6182304;28;20026;-82
2023/10/16 03:51:02;;;;;;;1.35;0.25;;;;;;;;;;6174744;28;20033;-82
2023/10/16 03:54:02;;;;;;;0.70;0.50;;;;;;;;;;6192749;28;20050;-82
2023/10/16 03:57:09;;;;;;;0.80;0.50;;;;;;;;;;6195166;28;20058;-86
2023/10/16 04:00:15;;;;;;;0.60;0.40;;;;;;;;;;6177138;28;20023;-86
2023/10/16 04:03:15;;;;;;;2.05;0.60;;;;;;;;;;6177556;28;20384;-85
2023/10/16 04:06:19;;;;;;;0.68;0.60;;;;;;;;;;6174136;28;20024;-88
2023/10/16 04:09:19;;;;;;;0.73;0.40;;;;;;;;;;6190814;28;20046;-86
2023/10/16 04:12:21;;;;;;;0.53;0.43;;;;;;;;;;6181440;28;20068;-86
2023/10/16 04:18:50;;;;;;;1.55;0.52;;;;;;;;;;6230005;28;19921;-86
2023/10/16 04:21:51;;;;;;;1.47;0.60;;;;;;;;;;6159882;28;20066;-86
2023/10/16 04:24:54;;;;;;;0.60;0.40;;;;;;;;;;6173994;28;20025;-85
2023/10/16 04:28:18;;;;;;;0.63;0.40;;;;;;;;;;6176059;28;20022;-85
2023/10/16 04:31:31;;;;;;;0.50;0.50;;;;;;;;;;6179452;28;20066;-86
2023/10/16 04:34:31;;;;;;;0.73;0.52;;;;;;;;;;6177382;28;20065;-86
2023/10/16 04:37:40;;;;;;;0.87;0.63;;;;;;;;;;6176369;28;20030;-85
2023/10/16 04:47:06;;;;;;;0.93;0.73;;;;;;;;;;6177876;28;20050;-86
2023/10/16 04:50:09;;;;;;;0.90;0.40;;;;;;;;;;6181394;28;20110;-85
2023/10/16 04:53:11;;;;;;;0.63;0.50;;;;;;;;;;6171600;28;20026;-85
2023/10/16 04:56:30;;;;;;;1.17;0.68;;;;;;;;;;6174330;28;20034;-86
2023/10/16 05:03:22;;;;;;;0.60;0.60;;;;;;;;;;6161203;28;20150;-85
2023/10/16 05:19:03;;;;;;;1.05;0.60;;;;;;;;;;6174115;28;20555;-85
2023/10/16 05:22:05;;;;;;;0.87;0.63;;;;;;;;;;6177110;28;20070;-86
2023/10/16 06:14:50;;;;;;;3.58;1.83;;;;;;;;;;6176231;28;20042;-87
2023/10/16 06:17:53;;;;;;;3.03;1.73;;;;;;;;;;6175453;28;20079;-87
2023/10/16 06:20:53;;;;;;;2.50;1.50;;;;;;;;;;6177143;28;20031;-86
2023/10/16 06:23:54;;;;;;;3.90;1.30;;;;;;;;;;6192052;28;20022;-87
2023/10/16 06:26:55;;;;;;;5.10;1.57;;;;;;;;;;6187412;28;21773;-84
2023/10/16 06:29:55;;;;;;;1.50;1.17;;;;;;;;;;6177360;28;20014;-84
2023/10/16 06:32:55;;;;;;;1.63;1.27;;;;;;;;;;6178411;28;20039;-82
2023/10/16 06:35:56;;;;;;;1.53;1.03;;;;;;;;;;6184004;28;20462;-84
2023/10/16 06:39:06;;;;;;;2.13;1.08;;;;;;;;;;6148967;28;20159;-84
2023/10/16 06:42:11;;;;;;;1.40;1.10;;;;;;;;;;6129474;28;20019;-85
2023/10/16 06:45:19;;;;;;;1.10;0.80;;;;;;;;;;6126656;28;20114;-84
2023/10/16 06:48:40;;;;;;;1.73;0.93;;;;;;;;;;6132767;28;20023;-83
2023/10/16 06:51:43;;;;;;;1.27;0.82;;;;;;;;;;6124691;29;20043;-85
2023/10/16 06:54:44;;;;;;;1.13;0.80;;;;;;;;;;6125884;28;20028;-84
2023/10/16 06:57:44;;;;;;;2.10;0.97;;;;;;;;;;6127771;28;20028;-86
2023/10/16 07:00:47;;;;;;;1.03;0.93;;;;;;;;;;6126059;29;20515;-86
2023/10/16 07:03:47;;;;;;;1.23;0.80;;;;;;;;;;6146508;28;20031;-87
2023/10/16 07:06:48;;;;;;;1.43;1.10;;;;;;;;;;6145972;29;20480;-85
2023/10/16 07:09:49;;;;;;;1.83;1.20;;;;;;;;;;6135844;28;20027;-84
2023/10/16 07:12:58;;;;;;;1.97;1.07;;;;;;;;;;6142629;28;20070;-85
2023/10/16 07:16:02;;;;;;;2.47;0.93;;;;;;;;;;6125496;29;20082;-86
2023/10/16 07:19:03;;;;;;;1.85;1.10;;;;;;;;;;6139006;28;20054;-85
2023/10/16 07:22:10;;;;;;;2.42;1.10;;;;;;;;;;6149527;29;20064;-86
2023/10/16 07:25:23;;;;;;;1.77;1.08;;;;;;;;;;6144379;28;20035;-86
2023/10/16 07:28:24;;;;;;;1.90;0.98;;;;;;;;;;6158525;28;20454;-86
2023/10/16 07:31:24;;;;;;;0.70;0.70;;;;;;;;;;6148747;28;20030;-86
2023/10/16 07:34:25;;;;;;;0.97;0.87;;;;;;;;;;6141090;28;20035;-82
2023/10/16 07:37:25;;;;;;;1.07;0.73;;;;;;;;;;6140864;28;20027;-85
2023/10/16 07:40:25;;;;;;;1.53;1.03;;;;;;;;;;6189794;28;20500;-85
2023/10/16 07:43:29;;;;;;;2.10;0.80;;;;;;;;;;6155851;28;20528;-85
2023/10/16 07:46:30;;;;;;;1.50;0.82;;;;;;;;;;6188975;28;20069;-85
2023/10/16 07:49:31;;;;;;;1.10;0.93;;;;;;;;;;6197165;28;20026;-85
2023/10/16 07:52:33;;;;;;;;;;;;;;;;;;6180667;28;20548;-87
2023/10/16 07:55:39;;;;;;;;;;;;;;;;;;6200792;28;19913;-87
2023/10/16 07:58:48;;;;;;;1.05;0.43;;;;;;;;;;6183015;28;19922;-85
2023/10/16 08:01:57;;;;;;;1.25;0.80;;;;;;;;;;6193405;28;20485;-85
2023/10/16 08:05:03;;;;;;;1.33;1.00;;;;;;;;;;6186526;28;20029;-83
2023/10/16 08:08:11;;;;;;;1.38;0.95;;;;;;;;;;6187423;28;20119;-86
2023/10/16 08:11:18;;;;;;;1.58;0.80;;;;;;;;;;6175608;28;20014;-86
2023/10/16 08:14:18;;;;;;;1.38;0.90;;;;;;;;;;6156167;28;20057;-87
2023/10/16 08:17:23;;;;;;;1.20;0.70;;;;;;;;;;6187707;28;20027;-87
2023/10/16 08:20:28;;;;;;;1.27;0.82;;;;;;;;;;6182358;28;20420;-86
2023/10/16 08:23:34;;;;;;;1.02;0.70;;;;;;;;;;6178137;28;20033;-87
2023/10/16 08:26:42;;;;;;;0.75;0.65;;;;;;;;;;6179053;28;20025;-86
2023/10/16 08:29:54;;;;;;;1.77;0.95;;;;;;;;;;6199970;28;20084;-88
2023/10/16 08:32:55;;;;;;;1.02;0.77;;;;;;;;;;6187381;28;20018;-84
2023/10/16 08:35:58;;;;;;;1.67;0.88;;;;;;;;;;6190906;28;20057;-89
2023/10/16 08:39:08;;;;;;;0.65;0.60;;;;;;;;;;6186039;28;20080;-85
2023/10/16 08:42:18;;;;;;;0.75;0.70;;;;;;;;;;6181020;28;20022;-84
2023/10/16 08:45:24;;;;;;;0.70;0.70;;;;;;;;;;6186353;28;20441;-84
2023/10/16 08:48:27;;;;;;;0.85;0.60;;;;;;;;;;6175577;28;20022;-84
2023/10/16 08:51:29;;;;;;;1.23;0.60;;;;;;;;;;6184679;28;20029;-88
2023/10/16 08:55:00;;;;;;;0.90;0.77;;;;;;;;;;6181434;28;20413;-83
2023/10/16 08:57:56;;;;;;;0.70;0.60;;;;;;;;;;6189228;28;20829;-84
2023/10/16 09:00:57;;;;;;;1.00;0.53;;;;;;;;;;6173255;28;20026;-85
2023/10/16 09:04:08;;;;;;;0.70;0.68;;;;;;;;;;6176340;28;20076;-85
2023/10/16 09:07:11;;;;;;;1.05;0.80;;;;;;;;;;6178833;28;20124;-85
2023/10/16 09:10:12;;;;;;;0.65;0.50;;;;;;;;;;6176654;28;20030;-84
2023/10/16 09:13:13;;;;;;;0.60;0.50;;;;;;;;;;6171298;28;20489;-84
2023/10/16 09:16:15;;;;;;;1.38;0.57;;;;;;;;;;5843820;28;10000004;-84
2023/10/16 09:19:15;;;;;;;0.80;0.50;;;;;;;;;;6172244;28;20080;-85
2023/10/16 09:22:17;;;;;;;1.07;0.73;;;;;;;;;;6225347;28;20024;-85
2023/10/16 09:25:18;;;;;;;;;;;;;;;;;;6178737;28;20534;-86
2023/10/16 09:28:20;;;;;;;0.70;0.37;;;;;;;;;;6184656;28;19916;-84
2023/10/16 09:31:21;;;;;;;1.15;0.60;;;;;;;;;;6180344;28;20023;-84
2023/10/16 09:34:25;;;;;;;1.03;0.63;;;;;;;;;;6191776;28;20033;-84
2023/10/16 09:37:34;;;;;;;0.98;0.70;;;;;;;;;;6179121;28;20058;-85
2023/10/16 09:40:37;;;;;;;1.63;0.98;;;;;;;;;;6168472;28;20039;-85
2023/10/16 09:43:40;;;;;;;1.92;0.60;;;;;;;;;;6168532;28;20027;-85
2023/10/16 09:49:47;;;;;;;1.00;0.70;;;;;;;;;;6167867;28;20031;-84
2023/10/16 09:52:48;;;;;;;1.65;1.40;;;;;;;;;;6168060;28;20376;-84
2023/10/16 09:55:53;;;;;;;0.95;0.80;;;;;;;;;;6168288;28;20019;-83
2023/10/16 09:58:56;;;;;;;1.67;0.55;;;;;;;;;;6170367;28;20122;-85
2023/10/16 10:02:02;;;;;;;1.13;0.65;;;;;;;;;;6183549;28;20113;-83
2023/10/16 10:05:09;;;;;;;0.93;0.60;;;;;;;;;;6182303;28;20052;-83
2023/10/16 10:08:18;;;;;;;0.77;0.60;;;;;;;;;;6194881;28;20478;-84
2023/10/16 10:11:38;;;;;;;0.60;0.55;;;;;;;;;;6177624;28;20099;-83
2023/10/16 10:14:48;;;;;;;0.60;0.40;;;;;;;;;;6208443;28;20031;-82
2023/10/16 10:17:52;;;;;;;0.40;0.40;;;;;;;;;;6195275;28;20034;-83
2023/10/16 10:21:03;;;;;;;0.40;0.40;;;;;;;;;;6188040;28;20065;-83
2023/10/16 10:24:03;;;;;;;0.85;0.52;;;;;;;;;;6179006;28;20030;-84
2023/10/16 10:27:04;;;;;;;0.83;0.60;;;;;;;;;;6180805;28;20036;-83
2023/10/16 10:30:05;;;;;;;0.73;0.40;;;;;;;;;;6262167;28;20027;-83
2023/10/16 10:33:06;;;;;;;0.88;0.50;;;;;;;;;;6195328;28;20090;-83
2023/10/16 10:36:25;;;;;;;1.00;0.52;;;;;;;;;;6178961;28;20022;-84
2023/10/16 10:42:37;;;;;;;1.10;0.40;;;;;;;;;;6194447;28;20022;-82
2023/10/16 10:45:45;;;;;;;0.50;0.38;;;;;;;;;;5846397;28;9999795;-70
2023/10/16 10:48:46;;;;;;;1.05;0.50;;;;;;;;;;6184975;28;20056;-80
2023/10/16 10:51:47;;;;;;;2.17;1.02;;;;;;;;;;6195717;28;20022;-80
2023/10/16 10:54:58;;;;;;;1.05;0.98;;;;;;;;;;6193424;28;20026;-67
2023/10/16 10:58:00;;;;;;;0.85;0.50;;;;;;;;;;6176022;28;20035;-81
2023/10/16 11:04:20;;;;;;;0.57;0.40;;;;;;;;;;6194385;28;20026;-81
2023/10/16 11:07:28;;;;;;;0.40;0.40;;;;;;;;;;6206354;28;20394;-78
2023/10/16 11:10:30;;;;;;;0.30;0.30;;;;;;;;;;6197443;28;20018;-79
2023/10/16 11:13:30;;;;;;;0.50;0.30;;;;;;;;;;6186862;28;20015;-78
2023/10/16 11:16:31;;;;;;;0.50;0.30;;;;;;;;;;6172455;28;20034;-79
2023/10/16 11:19:50;;;;;;;0.50;0.40;;;;;;;;;;6182727;28;20023;-79
2023/10/16 11:22:54;;;;;;;0.30;0.30;;;;;;;;;;6195368;28;20030;-78
2023/10/16 11:25:54;;;;;;;0.90;0.40;;;;;;;;;;6207394;28;20018;-78
2023/10/16 11:28:55;;;;;;;0.52;0.40;;;;;;;;;;6221474;28;20030;-81
2023/10/16 11:31:57;;;;;;;0.50;0.50;;;;;;;;;;6221212;28;20535;-78
2023/10/16 11:35:13;;;;;;;1.75;0.50;;;;;;;;;;6221292;28;20018;-78
2023/10/16 11:38:28;;;;;;;0.45;0.40;;;;;;;;;;6185129;28;20093;-78
2023/10/16 11:41:29;;;;;;;1.45;0.40;;;;;;;;;;6186759;28;20459;-79
2023/10/16 11:44:32;;;;;;;0.45;0.40;;;;;;;;;;6184078;28;20027;-78
2023/10/16 11:47:39;;;;;;;0.57;0.32;;;;;;;;;;6172032;28;20471;-79
2023/10/16 11:50:40;;;;;;;0.38;0.38;;;;;;;;;;6178525;28;20037;-78
2023/10/16 11:53:40;;;;;;;1.27;0.50;;;;;;;;;;6196636;28;20459;-78
2023/10/16 11:56:41;;;;;;;0.68;0.40;;;;;;;;;;6183444;28;20034;-79
2023/10/16 11:59:42;;;;;;;1.10;0.50;;;;;;;;;;6154772;28;20035;-78
2023/10/16 12:02:46;;;;;;;0.38;0.38;;;;;;;;;;6196433;28;20136;-79
2023/10/16 12:05:47;;;;;;;0.43;0.30;;;;;;;;;;6220326;28;20437;-78
2023/10/16 12:08:47;;;;;;;0.30;0.20;;;;;;;;;;6199861;28;20061;-78
2023/10/16 12:11:49;;;;;;;0.50;0.30;;;;;;;;;;6196280;28;20019;-79
2023/10/16 12:14:50;;;;;;;0.20;0.20;;;;;;;;;;6178200;28;20031;-80
2023/10/16 12:17:50;;;;;;;0.43;0.25;;;;;;;;;;6172099;28;20038;-78
2023/10/16 12:20:53;;;;;;;0.50;0.30;;;;;;;;;;6170066;28;20109;-78
2023/10/16 12:23:53;;;;;;;0.20;0.20;;;;;;;;;;6171342;28;20022;-79
2023/10/16 12:26:54;;;;;;;0.43;0.30;;;;;;;;;;6214269;28;20163;-78
2023/10/16 12:29:55;;;;;;;0.10;0.10;;;;;;;;;;6205916;28;20463;-78
2023/10/16 12:32:55;;;;;;;0.20;0.20;;;;;;;;;;6172015;28;20121;-79
2023/10/16 12:35:56;;;;;;;0.30;0.20;;;;;;;;;;6176383;28;20351;-79
2023/10/16 12:38:56;;;;;;;0.30;0.20;;;;;;;;;;6170722;28;20115;-79
2023/10/16 12:42:01;;;;;;;1.17;1.07;;;;;;;;;;6155001;28;20031;-81
2023/10/16 12:45:02;;;;;;;0.70;0.60;;;;;;;;;;6188518;28;20371;-78
2023/10/16 12:48:03;;;;;;;0.55;0.50;;;;;;;;;;5853671;28;9999734;-78
2023/10/16 12:51:08;;;;;;;0.40;0.38;;;;;;;;;;6194921;28;20027;-79
2023/10/16 12:54:12;;;;;;;0.55;0.40;;;;;;;;;;6194682;28;20045;-78
2023/10/16 12:57:12;;;;;;;0.43;0.38;;;;;;;;;;6183120;28;20015;-78
2023/10/16 13:00:17;;;;;;;0.20;0.17;;;;;;;;;;6190861;28;20037;-78
2023/10/16 13:03:20;;;;;;;0.93;0.30;;;;;;;;;;6165627;28;20019;-78
2023/10/16 13:06:20;;;;;;;0.20;0.20;;;;;;;;;;6170226;28;20027;-78
2023/10/16 13:09:22;;;;;;;0.60;0.30;;;;;;;;;;6174078;28;20556;-78
2023/10/16 13:12:22;;;;;;;0.38;0.30;;;;;;;;;;6153900;28;20027;-79
2023/10/16 13:15:29;;;;;;;0.27;0.27;;;;;;;;;;6174781;28;20080;-80
2023/10/16 13:18:30;;;;;;;0.15;0.15;;;;;;;;;;6195259;28;20023;-78
2023/10/16 13:21:33;;;;;;;1.10;0.65;;;;;;;;;;6193735;28;20391;-78
2023/10/16 13:24:35;;;;;;;1.65;0.70;;;;;;;;;;6194865;28;20038;-79
2023/10/16 13:27:37;;;;;;;1.10;0.50;;;;;;;;;;6194958;28;20123;-82
2023/10/16 13:30:37;;;;;;;0.55;0.40;;;;;;;;;;6194899;28;20022;-82
2023/10/16 13:33:41;;;;;;;0.60;0.30;;;;;;;;;;6199381;28;20030;-82
2023/10/16 13:37:08;;;;;;;0.63;0.40;;;;;;;;;;6192344;28;20467;-82
2023/10/16 13:40:04;;;;;;;0.50;0.30;;;;;;;;;;6182753;28;20077;-81
2023/10/16 13:43:10;;;;;;;0.50;0.30;;;;;;;;;;6199012;28;20496;-82
2023/10/16 13:46:12;;;;;;;0.30;0.30;;;;;;;;;;6198290;28;20029;-82
2023/10/16 13:49:14;;;;;;;0.35;0.30;;;;;;;;;;6181078;28;20057;-81
2023/10/16 13:52:14;;;;;;;0.28;0.25;;;;;;;;;;6198231;28;20026;-82
2023/10/16 13:55:14;;;;;;;0.53;0.23;;;;;;;;;;6198253;28;20522;-81
2023/10/16 13:58:14;;;;;;;0.10;0.10;;;;;;;;;;6185756;28;20039;-81
2023/10/16 14:01:16;;;;;;;0.80;0.28;;;;;;;;;;6196003;28;20501;-81
2023/10/16 14:04:17;;;;;;;0.10;0.10;;;;;;;;;;6209958;28;20071;-80
2023/10/16 14:07:19;;;;;;;0.30;0.30;;;;;;;;;;6188966;28;20038;-81
2023/10/16 14:10:21;;;;;;;0.40;0.20;;;;;;;;;;6174556;28;20023;-81
2023/10/16 14:13:26;;;;;;;0.20;0.17;;;;;;;;;;6183956;28;20022;-81
2023/10/16 14:16:32;;;;;;;0.52;0.35;;;;;;;;;;6193548;28;20364;-81
2023/10/16 14:19:32;;;;;;;0.55;0.50;;;;;;;;;;6185540;28;20019;-81
2023/10/16 14:22:33;;;;;;;0.30;0.30;;;;;;;;;;6206248;28;20026;-81
2023/10/16 14:25:35;;;;;;;0.57;0.30;;;;;;;;;;6222682;28;20029;-81
2023/10/16 14:28:50;;;;;;;0.20;0.20;;;;;;;;;;6214386;28;20062;-81
2023/10/16 14:31:51;;;;;;;0.30;0.30;;;;;;;;;;6187021;28;20027;-81
2023/10/16 14:34:51;;;;;;;0.77;0.30;;;;;;;;;;6180317;28;20467;-78
2023/10/16 14:37:52;;;;;;;0.40;0.30;;;;;;;;;;6196974;28;20062;-78
2023/10/16 14:40:55;;;;;;;0.30;0.30;;;;;;;;;;6187296;28;20027;-78
2023/10/16 14:43:56;;;;;;;0.60;0.40;;;;;;;;;;6178778;28;20027;-79
2023/10/16 14:46:56;;;;;;;0.80;0.30;;;;;;;;;;6196919;28;20113;-78
2023/10/16 14:49:56;;;;;;;1.47;0.40;;;;;;;;;;6197165;28;20521;-78
2023/10/16 14:52:57;;;;;;;1.90;0.47;;;;;;;;;;6179688;28;20111;-78
2023/10/16 14:55:57;;;;;;;0.43;0.37;;;;;;;;;;6197517;28;20499;-78
2023/10/16 14:58:57;;;;;;;0.30;0.20;;;;;;;;;;6197250;28;20058;-80
2023/10/16 15:01:58;;;;;;;1.43;0.40;;;;;;;;;;6203133;28;20026;-79
2023/10/16 15:04:59;;;;;;;0.63;0.32;;;;;;;;;;6196720;28;20030;-78
2023/10/16 15:08:04;;;;;;;0.90;0.52;;;;;;;;;;6196367;28;20084;-78
2023/10/16 15:11:05;;;;;;;0.60;0.47;;;;;;;;;;6197512;28;20022;-78
2023/10/16 15:14:05;;;;;;;1.90;0.55;;;;;;;;;;6166046;28;20029;-78
2023/10/16 15:17:05;;;;;;;1.27;0.70;;;;;;;;;;6172800;28;20070;-79
2023/10/16 15:20:15;;;;;;;1.80;0.77;;;;;;;;;;6163536;28;20369;-79
2023/10/16 15:23:15;;;;;;;0.80;0.50;;;;;;;;;;6218153;28;20026;-78
2023/10/16 15:26:16;;;;;;;1.85;0.52;;;;;;;;;;6205787;28;20023;-78
2023/10/16 15:29:16;;;;;;;1.10;0.70;;;;;;;;;;6189103;28;20065;-78
2023/10/16 15:32:16;;;;;;;0.80;0.47;;;;;;;;;;6172848;28;20030;-78
2023/10/16 15:35:17;;;;;;;0.93;0.40;;;;;;;;;;6172853;28;20019;-78
2023/10/16 15:38:28;;;;;;;0.53;0.30;;;;;;;;;;6171897;28;20061;-78
2023/10/16 15:41:28;;;;;;;2.28;0.50;;;;;;;;;;6191976;28;20014;-78
2023/10/16 15:44:28;;;;;;;0.47;0.23;;;;;;;;;;6196485;28;20494;-78
2023/10/16 15:47:29;;;;;;;0.40;0.30;;;;;;;;;;6196326;28;20400;-79
2023/10/16 15:50:31;;;;;;;0.32;0.25;;;;;;;;;;6196163;28;20137;-79
2023/10/16 15:53:31;;;;;;;;;;;;;;;;;;6196021;28;20075;-78
2023/10/16 15:56:31;;;;;;;1.33;0.38;;;;;;;;;;6196432;28;19933;-78
2023/10/16 15:59:31;;;;;;;1.00;0.50;;;;;;;;;;6196554;28;20456;-78
2023/10/16 16:02:34;;;;;;;0.60;0.40;;;;;;;;;;6196485;28;20014;-78
2023/10/16 16:05:35;;;;;;;0.70;0.50;;;;;;;;;;6188626;28;20418;-79
2023/10/16 16:08:40;;;;;;;0.43;0.35;;;;;;;;;;6190455;28;20026;-80
2023/10/16 16:11:44;;;;;;;0.88;0.50;;;;;;;;;;6183812;28;20117;-78
2023/10/16 16:14:44;;;;;;;0.30;0.30;;;;;;;;;;6171792;28;20026;-79
2023/10/16 16:17:44;;;;;;;0.57;0.20;;;;;;;;;;6187368;28;20033;-79
2023/10/16 16:20:47;;;;;;;0.53;0.50;;;;;;;;;;6218773;28;20025;-79
2023/10/16 16:23:48;;;;;;;1.98;0.68;;;;;;;;;;6195858;28;20102;-78
2023/10/16 16:26:49;;;;;;;1.90;1.00;;;;;;;;;;6195981;28;20036;-79
2023/10/16 16:29:49;;;;;;;1.67;1.20;;;;;;;;;;6173449;28;20105;-82
2023/10/16 16:32:50;;;;;;;2.90;1.97;;;;;;;;;;6186698;28;20022;-78
2023/10/16 16:35:51;;;;;;;2.33;1.67;;;;;;;;;;6195116;28;20463;-78
2023/10/16 16:38:55;;;;;;;2.45;1.80;;;;;;;;;;6177493;28;20479;-78
2023/10/16 16:41:58;;;;;;;2.92;1.70;;;;;;;;;;6178244;28;20034;-79
2023/10/16 16:44:58;;;;;;;2.22;1.58;;;;;;;;;;6169929;28;20038;-79
2023/10/16 16:47:58;;;;;;;2.27;1.43;;;;;;;;;;6170840;28;20038;-79
2023/10/16 16:50:59;;;;;;;1.67;1.10;;;;;;;;;;6173055;28;20101;-78
2023/10/16 16:53:59;;;;;;;1.13;0.90;;;;;;;;;;6170307;28;20563;-81
2023/10/16 16:56:59;;;;;;;3.00;0.90;;;;;;;;;;6168538;28;20372;-79
2023/10/16 17:00:02;;;;;;;1.03;0.90;;;;;;;;;;6190524;28;20451;-78
2023/10/16 17:03:03;;;;;;;1.00;0.70;;;;;;;;;;6157237;28;20027;-79
2023/10/16 17:06:04;;;;;;;;;;;;;;;;;;6204293;28;20037;-79
2023/10/16 17:09:04;;;;;;;2.30;0.70;;;;;;;;;;6206732;28;19913;-79
2023/10/16 17:12:04;;;;;;;0.70;0.67;;;;;;;;;;6217847;28;20026;-80
2023/10/16 17:15:10;;;;;;;1.00;0.80;;;;;;;;;;6198083;28;20083;-79
2023/10/16 17:18:12;;;;;;;0.95;0.80;;;;;;;;;;6177339;28;20038;-79
2023/10/16 17:21:13;;;;;;;1.10;0.75;;;;;;;;;;6173955;28;20057;-79
2023/10/16 17:24:14;;;;;;;1.38;0.80;;;;;;;;;;6171835;28;20535;-79
2023/10/16 17:27:14;;;;;;;1.42;1.00;;;;;;;;;;6174198;28;20486;-80
2023/10/16 17:30:14;;;;;;;1.43;0.90;;;;;;;;;;6166789;28;20520;-79
2023/10/16 17:33:15;;;;;;;1.10;1.00;;;;;;;;;;6169007;28;20083;-79
2023/10/16 17:36:15;;;;;;;0.90;0.60;;;;;;;;;;6171526;28;20023;-81
2023/10/16 17:39:18;;;;;;;2.47;0.87;;;;;;;;;;6172214;28;20058;-78
2023/10/16 17:42:18;;;;;;;1.73;0.88;;;;;;;;;;6173534;28;20031;-78
2023/10/16 17:45:28;;;;;;;0.80;0.60;;;;;;;;;;6169634;28;20490;-77
2023/10/16 17:48:28;;;;;;;0.90;0.70;;;;;;;;;;6166072;28;20457;-77
2023/10/16 17:51:33;;;;;;;0.77;0.70;;;;;;;;;;6167244;28;20038;-75
2023/10/16 17:54:33;;;;;;;0.65;0.52;;;;;;;;;;6172213;28;20029;-77
2023/10/16 17:57:33;;;;;;;2.22;0.60;;;;;;;;;;6169402;28;20066;-78
2023/10/16 18:00:39;;;;;;;1.03;0.70;;;;;;;;;;6166783;28;20038;-78
2023/10/16 18:03:40;;;;;;;3.08;0.73;;;;;;;;;;6171075;28;20080;-76
2023/10/16 18:06:40;;;;;;;0.70;0.60;;;;;;;;;;6168144;28;20542;-74
2023/10/16 18:09:41;;;;;;;0.53;0.40;;;;;;;;;;6166352;28;20031;-74
2023/10/16 18:12:41;;;;;;;0.83;0.57;;;;;;;;;;6167985;28;20459;-74
2023/10/16 18:15:47;;;;;;;0.40;0.40;;;;;;;;;;6166795;28;20030;-75
2023/10/16 18:18:48;;;;;;;0.88;0.60;;;;;;;;;;6172935;28;20118;-74
2023/10/16 18:21:48;;;;;;;1.90;0.67;;;;;;;;;;6173002;28;20039;-74
2023/10/16 18:24:48;;;;;;;1.73;0.73;;;;;;;;;;6173064;28;20031;-73
2023/10/16 18:27:48;;;;;;;1.17;0.70;;;;;;;;;;6173680;28;20058;-74
2023/10/16 18:30:49;;;;;;;1.87;0.80;;;;;;;;;;6170374;28;20123;-73
2023/10/16 18:33:52;;;;;;;1.17;0.70;;;;;;;;;;6176098;28;20539;-74
2023/10/16 18:36:52;;;;;;;0.63;0.63;;;;;;;;;;6167771;28;20039;-76
2023/10/16 18:39:52;;;;;;;1.00;0.60;;;;;;;;;;6169549;28;20167;-73
2023/10/16 18:42:54;;;;;;;0.97;0.57;;;;;;;;;;6170724;28;20039;-76
2023/10/16 18:45:56;;;;;;;0.75;0.70;;;;;;;;;;6172544;28;20105;-72
2023/10/16 18:48:57;;;;;;;1.20;0.80;;;;;;;;;;6173506;28;20038;-73
2023/10/16 18:51:57;;;;;;;0.98;0.77;;;;;;;;;;6170538;28;20495;-74
2023/10/16 18:54:57;;;;;;;2.73;0.70;;;;;;;;;;6169336;28;20072;-73
2023/10/16 18:57:58;;;;;;;2.17;0.80;;;;;;;;;;6169577;28;20043;-73
2023/10/16 19:01:04;;;;;;;1.10;0.73;;;;;;;;;;6176435;28;20117;-73
2023/10/16 19:04:08;;;;;;;0.82;0.70;;;;;;;;;;6169448;28;20149;-75
2023/10/16 19:07:20;;;;;;;0.70;0.60;;;;;;;;;;6191389;28;20038;-74
2023/10/16 19:10:23;;;;;;;0.85;0.60;;;;;;;;;;6173235;28;20038;-75
2023/10/16 19:13:25;;;;;;;0.90;0.60;;;;;;;;;;6174073;28;20118;-74
2023/10/16 19:16:25;;;;;;;1.33;0.93;;;;;;;;;;6179508;28;20022;-77
2023/10/16 19:19:25;;;;;;;1.37;0.97;;;;;;;;;;6179951;28;20493;-77
2023/10/16 19:22:26;;;;;;;1.73;0.70;;;;;;;;;;6178620;28;20041;-77
2023/10/16 19:25:26;;;;;;;1.03;0.77;;;;;;;;;;6171206;28;20038;-77
2023/10/16 19:28:26;;;;;;;1.13;0.70;;;;;;;;;;6173773;28;20111;-77
2023/10/16 19:31:27;;;;;;;2.03;0.90;;;;;;;;;;6168017;28;20034;-77
2023/10/16 19:34:28;;;;;;;1.95;0.90;;;;;;;;;;6168503;28;20037;-74
2023/10/16 19:37:29;;;;;;;0.60;0.50;;;;;;;;;;6172468;28;20452;-74
2023/10/16 19:40:29;;;;;;;1.13;0.87;;;;;;;;;;6173968;28;20062;-74